sensor_id;sensor_type;location;lat;lon;timestamp;pressure;altitude;pressure_sealevel;temperature;humidity
71239;BME280;61342;51.442;7.370;2023-05-03T00:00:39;101260.78;;;7.65;80.29
71239;BME280;61342;51.442;7.370;2023-05-03T00:01:39;101257.59;;;7.63;80.37
71239;BME280;61342;51.442;7.370;2023-05-03T00:02:40;101253.47;;;7.64;80.53
71239;BME280;61342;51.442;7.370;2023-05-03T00:03:43;101254.44;;;7.61;80.69
71239;BME280;61342;51.442;7.370;2023-05-03T00:04:44;101255.22;;;7.61;80.55
71239;BME280;61342;51.442;7.370;2023-05-03T00:05:47;101255.72;;;7.60;80.96
71239;BME280;61342;51.442;7.370;2023-05-03T00:06:47;101251.25;;;7.59;81.01
71239;BME280;61342;51.442;7.370;2023-05-03T00:07:48;101256.69;;;7.57;81.04
71239;BME280;61342;51.442;7.370;2023-05-03T00:08:48;101258.75;;;7.56;81.09
71239;BME280;61342;51.442;7.370;2023-05-03T00:09:48;101260.81;;;7.56;81.11
71239;BME280;61342;51.442;7.370;2023-05-03T00:10:49;101258.94;;;7.53;81.27
71239;BME280;61342;51.442;7.370;2023-05-03T00:11:49;101257.34;;;7.52;81.44
71239;BME280;61342;51.442;7.370;2023-05-03T00:12:49;101252.88;;;7.51;81.53
71239;BME280;61342;51.442;7.370;2023-05-03T00:13:53;101251.28;;;7.50;81.64
71239;BME280;61342;51.442;7.370;2023-05-03T00:14:53;101251.00;;;7.48;81.54
71239;BME280;61342;51.442;7.370;2023-05-03T00:15:53;101248.63;;;7.46;81.57
71239;BME280;61342;51.442;7.370;2023-05-03T00:16:54;101248.81;;;7.43;81.75
71239;BME280;61342;51.442;7.370;2023-05-03T00:17:54;101254.03;;;7.44;81.59
71239;BME280;61342;51.442;7.370;2023-05-03T00:18:54;101255.00;;;7.42;81.95
71239;BME280;61342;51.442;7.370;2023-05-03T00:19:55;101243.09;;;7.43;81.75
71239;BME280;61342;51.442;7.370;2023-05-03T00:20:55;101253.41;;;7.41;82.02
71239;BME280;61342;51.442;7.370;2023-05-03T00:21:56;101249.47;;;7.38;82.04
71239;BME280;61342;51.442;7.370;2023-05-03T00:22:56;101243.72;;;7.38;82.01
71239;BME280;61342;51.442;7.370;2023-05-03T00:23:56;101248.34;;;7.36;82.07
71239;BME280;61342;51.442;7.370;2023-05-03T00:24:58;101250.72;;;7.37;82.26
71239;BME280;61342;51.442;7.370;2023-05-03T00:25:59;101239.78;;;7.36;82.14
71239;BME280;61342;51.442;7.370;2023-05-03T00:26:59;101247.25;;;7.33;82.08
71239;BME280;61342;51.442;7.370;2023-05-03T00:28:00;101246.78;;;7.35;82.34
71239;BME280;61342;51.442;7.370;2023-05-03T00:29:00;101248.56;;;7.32;82.36
71239;BME280;61342;51.442;7.370;2023-05-03T00:30:00;101244.25;;;7.28;82.58
71239;BME280;61342;51.442;7.370;2023-05-03T00:31:08;101247.94;;;7.28;82.23
71239;BME280;61342;51.442;7.370;2023-05-03T00:32:08;101247.59;;;7.26;82.40
71239;BME280;61342;51.442;7.370;2023-05-03T00:33:10;101250.47;;;7.26;82.63
71239;BME280;61342;51.442;7.370;2023-05-03T00:34:10;101242.09;;;7.23;82.51
71239;BME280;61342;51.442;7.370;2023-05-03T00:35:10;101250.19;;;7.24;82.50
71239;BME280;61342;51.442;7.370;2023-05-03T00:36:12;101249.84;;;7.22;82.57
71239;BME280;61342;51.442;7.370;2023-05-03T00:37:13;101243.03;;;7.20;82.71
71239;BME280;61342;51.442;7.370;2023-05-03T00:38:13;101245.41;;;7.21;82.73
71239;BME280;61342;51.442;7.370;2023-05-03T00:39:14;101249.22;;;7.18;82.81
71239;BME280;61342;51.442;7.370;2023-05-03T00:40:18;101239.88;;;7.18;82.91
71239;BME280;61342;51.442;7.370;2023-05-03T00:41:18;101243.69;;;7.15;82.93
71239;BME280;61342;51.442;7.370;2023-05-03T00:42:19;101242.13;;;7.14;82.87
71239;BME280;61342;51.442;7.370;2023-05-03T00:43:19;101242.28;;;7.10;82.86
71239;BME280;61342;51.442;7.370;2023-05-03T00:44:22;101244.66;;;7.12;82.70
71239;BME280;61342;51.442;7.370;2023-05-03T00:45:23;101244.66;;;7.12;83.15
71239;BME280;61342;51.442;7.370;2023-05-03T00:46:23;101252.94;;;7.10;83.01
71239;BME280;61342;51.442;7.370;2023-05-03T00:47:24;101244.53;;;7.06;83.04
71239;BME280;61342;51.442;7.370;2023-05-03T00:48:25;101247.38;;;7.06;83.22
71239;BME280;61342;51.442;7.370;2023-05-03T00:49:25;101253.41;;;7.08;83.30
71239;BME280;61342;51.442;7.370;2023-05-03T00:50:26;101252.47;;;7.02;83.04
71239;BME280;61342;51.442;7.370;2023-05-03T00:51:26;101262.63;;;7.03;83.02
71239;BME280;61342;51.442;7.370;2023-05-03T00:52:27;101257.91;;;7.00;83.18
71239;BME280;61342;51.442;7.370;2023-05-03T00:53:28;101256.59;;;7.01;83.32
71239;BME280;61342;51.442;7.370;2023-05-03T00:54:30;101251.84;;;6.98;83.64
71239;BME280;61342;51.442;7.370;2023-05-03T00:55:33;101247.88;;;6.96;83.46
71239;BME280;61342;51.442;7.370;2023-05-03T00:56:36;101262.94;;;6.96;83.31
71239;BME280;61342;51.442;7.370;2023-05-03T00:57:37;101264.25;;;6.95;83.36
71239;BME280;61342;51.442;7.370;2023-05-03T00:58:37;101265.53;;;6.94;83.75
71239;BME280;61342;51.442;7.370;2023-05-03T00:59:39;101266.78;;;6.93;83.64
71239;BME280;61342;51.442;7.370;2023-05-03T01:00:40;101268.38;;;6.94;83.53
71239;BME280;61342;51.442;7.370;2023-05-03T01:01:40;101270.91;;;6.92;83.92
71239;BME280;61342;51.442;7.370;2023-05-03T01:02:41;101272.97;;;6.92;83.74
71239;BME280;61342;51.442;7.370;2023-05-03T01:03:41;101266.16;;;6.89;83.81
71239;BME280;61342;51.442;7.370;2023-05-03T01:04:42;101277.09;;;6.91;83.66
71239;BME280;61342;51.442;7.370;2023-05-03T01:06:09;101268.38;;;6.86;83.86
71239;BME280;61342;51.442;7.370;2023-05-03T01:08:43;101269.84;;;6.81;84.08
71239;BME280;61342;51.442;7.370;2023-05-03T01:09:54;101261.28;;;6.81;84.05
71239;BME280;61342;51.442;7.370;2023-05-03T01:11:00;101262.06;;;6.82;84.34
71239;BME280;61342;51.442;7.370;2023-05-03T01:14:27;101262.25;;;6.78;84.38
71239;BME280;61342;51.442;7.370;2023-05-03T01:16:48;101257.47;;;6.75;84.19
71239;BME280;61342;51.442;7.370;2023-05-03T01:17:57;101258.44;;;6.72;84.46
71239;BME280;61342;51.442;7.370;2023-05-03T01:18:59;101261.91;;;6.76;84.48
71239;BME280;61342;51.442;7.370;2023-05-03T01:20:07;101269.69;;;6.76;84.33
71239;BME280;61342;51.442;7.370;2023-05-03T01:21:11;101266.03;;;6.75;84.63
71239;BME280;61342;51.442;7.370;2023-05-03T01:24:50;101260.50;;;6.72;84.49
71239;BME280;61342;51.442;7.370;2023-05-03T01:25:54;101274.31;;;6.73;84.70
71239;BME280;61342;51.442;7.370;2023-05-03T01:26:55;101273.50;;;6.73;84.87
71239;BME280;61342;51.442;7.370;2023-05-03T01:27:56;101270.34;;;6.71;85.14
71239;BME280;61342;51.442;7.370;2023-05-03T01:28:56;101260.19;;;6.70;84.95
71239;BME280;61342;51.442;7.370;2023-05-03T01:29:57;101264.63;;;6.71;85.13
71239;BME280;61342;51.442;7.370;2023-05-03T01:30:58;101265.91;;;6.70;84.72
71239;BME280;61342;51.442;7.370;2023-05-03T01:32:00;101263.53;;;6.68;84.88
71239;BME280;61342;51.442;7.370;2023-05-03T01:33:16;101268.44;;;6.68;85.05
71239;BME280;61342;51.442;7.370;2023-05-03T01:34:41;101272.25;;;6.65;85.42
71239;BME280;61342;51.442;7.370;2023-05-03T01:36:52;101263.38;;;6.63;85.20
71239;BME280;61342;51.442;7.370;2023-05-03T01:37:56;101268.28;;;6.62;85.25
71239;BME280;61342;51.442;7.370;2023-05-03T01:38:58;101273.22;;;6.62;85.49
71239;BME280;61342;51.442;7.370;2023-05-03T01:40:01;101271.31;;;6.59;85.50
71239;BME280;61342;51.442;7.370;2023-05-03T01:41:09;101267.34;;;6.56;85.42
71239;BME280;61342;51.442;7.370;2023-05-03T01:42:11;101276.22;;;6.58;85.74
71239;BME280;61342;51.442;7.370;2023-05-03T01:43:15;101270.69;;;6.55;85.57
71239;BME280;61342;51.442;7.370;2023-05-03T01:44:16;101266.72;;;6.52;85.56
71239;BME280;61342;51.442;7.370;2023-05-03T01:45:17;101286.06;;;6.57;85.96
71239;BME280;61342;51.442;7.370;2023-05-03T01:46:17;101281.28;;;6.54;85.55
71239;BME280;61342;51.442;7.370;2023-05-03T01:47:17;101275.59;;;6.54;85.71
71239;BME280;61342;51.442;7.370;2023-05-03T01:48:18;101276.06;;;6.53;85.50
71239;BME280;61342;51.442;7.370;2023-05-03T01:49:18;101278.63;;;6.51;85.68
71239;BME280;61342;51.442;7.370;2023-05-03T01:50:19;101275.75;;;6.51;85.99
71239;BME280;61342;51.442;7.370;2023-05-03T01:51:19;101282.25;;;6.51;85.81
71239;BME280;61342;51.442;7.370;2023-05-03T01:52:20;101287.19;;;6.51;85.85
71239;BME280;61342;51.442;7.370;2023-05-03T01:53:20;101283.53;;;6.50;86.05
71239;BME280;61342;51.442;7.370;2023-05-03T01:54:21;101283.22;;;6.48;86.06
71239;BME280;61342;51.442;7.370;2023-05-03T01:55:21;101285.25;;;6.48;86.09
71239;BME280;61342;51.442;7.370;2023-05-03T01:56:22;101282.59;;;6.44;86.05
71239;BME280;61342;51.442;7.370;2023-05-03T01:57:22;101283.38;;;6.45;85.84
71239;BME280;61342;51.442;7.370;2023-05-03T01:58:22;101278.47;;;6.45;86.02
71239;BME280;61342;51.442;7.370;2023-05-03T01:59:23;101281.78;;;6.44;86.08
71239;BME280;61342;51.442;7.370;2023-05-03T02:00:23;101278.63;;;6.42;86.00
71239;BME280;61342;51.442;7.370;2023-05-03T02:01:23;101282.75;;;6.41;86.14
71239;BME280;61342;51.442;7.370;2023-05-03T02:02:24;101294.16;;;6.41;86.05
71239;BME280;61342;51.442;7.370;2023-05-03T02:03:25;101291.00;;;6.39;85.90
71239;BME280;61342;51.442;7.370;2023-05-03T02:04:25;101295.91;;;6.38;86.07
71239;BME280;61342;51.442;7.370;2023-05-03T02:05:25;101288.63;;;6.37;86.12
71239;BME280;61342;51.442;7.370;2023-05-03T02:06:26;101289.41;;;6.38;86.18
71239;BME280;61342;51.442;7.370;2023-05-03T02:07:26;101291.47;;;6.37;86.28
71239;BME280;61342;51.442;7.370;2023-05-03T02:08:26;101287.66;;;6.31;86.49
71239;BME280;61342;51.442;7.370;2023-05-03T02:09:27;101296.53;;;6.33;86.23
71239;BME280;61342;51.442;7.370;2023-05-03T02:10:27;101289.41;;;6.29;86.47
71239;BME280;61342;51.442;7.370;2023-05-03T02:11:27;101291.00;;;6.30;86.44
71239;BME280;61342;51.442;7.370;2023-05-03T02:12:28;101292.59;;;6.31;86.50
71239;BME280;61342;51.442;7.370;2023-05-03T02:13:28;101288.16;;;6.30;86.36
71239;BME280;61342;51.442;7.370;2023-05-03T02:14:31;101289.41;;;6.29;86.73
71239;BME280;61342;51.442;7.370;2023-05-03T02:15:32;101288.78;;;6.25;86.54
71239;BME280;61342;51.442;7.370;2023-05-03T02:16:32;101291.47;;;6.29;86.66
71239;BME280;61342;51.442;7.370;2023-05-03T02:17:32;101295.59;;;6.28;86.67
71239;BME280;61342;51.442;7.370;2023-05-03T02:18:33;101288.78;;;6.25;86.55
71239;BME280;61342;51.442;7.370;2023-05-03T02:19:34;101288.47;;;6.23;86.44
71239;BME280;61342;51.442;7.370;2023-05-03T02:20:35;101289.72;;;6.22;86.50
71239;BME280;61342;51.442;7.370;2023-05-03T02:21:36;101304.00;;;6.22;86.79
71239;BME280;61342;51.442;7.370;2023-05-03T02:22:37;101299.88;;;6.23;86.50
71239;BME280;61342;51.442;7.370;2023-05-03T02:23:38;101312.56;;;6.22;86.49
71239;BME280;61342;51.442;7.370;2023-05-03T02:24:38;101294.94;;;6.15;86.54
71239;BME280;61342;51.442;7.370;2023-05-03T02:25:40;101308.25;;;6.18;86.82
71239;BME280;61342;51.442;7.370;2023-05-03T02:26:40;101306.22;;;6.18;86.57
71239;BME280;61342;51.442;7.370;2023-05-03T02:27:41;101306.69;;;6.17;86.51
71239;BME280;61342;51.442;7.370;2023-05-03T02:28:41;101306.84;;;6.13;86.43
71239;BME280;61342;51.442;7.370;2023-05-03T02:29:42;101312.88;;;6.15;86.72
71239;BME280;61342;51.442;7.370;2023-05-03T02:30:42;101310.97;;;6.12;86.62
71239;BME280;61342;51.442;7.370;2023-05-03T02:31:43;101313.81;;;6.12;86.82
71239;BME280;61342;51.442;7.370;2023-05-03T02:32:43;101318.41;;;6.10;87.04
71239;BME280;61342;51.442;7.370;2023-05-03T02:33:44;101320.00;;;6.11;86.59
71239;BME280;61342;51.442;7.370;2023-05-03T02:34:48;101316.84;;;6.09;86.72
71239;BME280;61342;51.442;7.370;2023-05-03T02:35:49;101326.66;;;6.08;86.70
71239;BME280;61342;51.442;7.370;2023-05-03T02:36:49;101322.69;;;6.05;86.80
71239;BME280;61342;51.442;7.370;2023-05-03T02:37:50;101323.94;;;6.04;86.68
71239;BME280;61342;51.442;7.370;2023-05-03T02:38:50;101318.72;;;6.03;86.93
71239;BME280;61342;51.442;7.370;2023-05-03T02:39:51;101319.50;;;6.03;86.83
71239;BME280;61342;51.442;7.370;2023-05-03T02:40:51;101320.78;;;6.02;86.96
71239;BME280;61342;51.442;7.370;2023-05-03T02:41:51;101317.94;;;6.02;86.96
71239;BME280;61342;51.442;7.370;2023-05-03T02:42:52;101314.75;;;6.00;87.06
71239;BME280;61342;51.442;7.370;2023-05-03T02:43:52;101311.25;;;5.96;87.25
71239;BME280;61342;51.442;7.370;2023-05-03T02:44:52;101316.47;;;5.98;87.15
71239;BME280;61342;51.442;7.370;2023-05-03T02:45:53;101320.63;;;5.97;87.24
71239;BME280;61342;51.442;7.370;2023-05-03T02:46:53;101323.47;;;5.97;87.18
71239;BME280;61342;51.442;7.370;2023-05-03T02:47:53;101311.88;;;5.91;87.07
71239;BME280;61342;51.442;7.370;2023-05-03T02:48:54;101314.09;;;5.96;87.29
71239;BME280;61342;51.442;7.370;2023-05-03T02:49:54;101318.69;;;5.94;87.14
71239;BME280;61342;51.442;7.370;2023-05-03T02:50:55;101311.88;;;5.91;87.49
71239;BME280;61342;51.442;7.370;2023-05-03T02:51:55;101310.75;;;5.89;87.25
71239;BME280;61342;51.442;7.370;2023-05-03T02:52:57;101316.00;;;5.90;87.37
71239;BME280;61342;51.442;7.370;2023-05-03T02:53:57;101311.22;;;5.87;87.50
71239;BME280;61342;51.442;7.370;2023-05-03T02:54:57;101313.59;;;5.89;87.45
71239;BME280;61342;51.442;7.370;2023-05-03T02:55:58;101306.47;;;5.84;87.38
71239;BME280;61342;51.442;7.370;2023-05-03T02:56:58;101315.03;;;5.84;87.31
71239;BME280;61342;51.442;7.370;2023-05-03T02:57:58;101312.50;;;5.86;87.62
71239;BME280;61342;51.442;7.370;2023-05-03T02:58:59;101310.09;;;5.85;87.74
71239;BME280;61342;51.442;7.370;2023-05-03T02:59:59;101309.03;;;5.82;87.58
71239;BME280;61342;51.442;7.370;2023-05-03T03:01:00;101307.09;;;5.79;87.57
71239;BME280;61342;51.442;7.370;2023-05-03T03:02:00;101309.94;;;5.79;87.79
71239;BME280;61342;51.442;7.370;2023-05-03T03:03:00;101314.88;;;5.79;87.69
71239;BME280;61342;51.442;7.370;2023-05-03T03:04:01;101309.94;;;5.79;87.87
71239;BME280;61342;51.442;7.370;2023-05-03T03:05:01;101308.69;;;5.80;87.71
71239;BME280;61342;51.442;7.370;2023-05-03T03:06:01;101314.09;;;5.78;87.81
71239;BME280;61342;51.442;7.370;2023-05-03T03:07:02;101314.09;;;5.78;87.69
71239;BME280;61342;51.442;7.370;2023-05-03T03:08:02;101309.63;;;5.77;87.99
71239;BME280;61342;51.442;7.370;2023-05-03T03:09:03;101300.06;;;5.71;87.86
71239;BME280;61342;51.442;7.370;2023-05-03T03:10:05;101309.31;;;5.75;87.92
71239;BME280;61342;51.442;7.370;2023-05-03T03:11:06;101312.59;;;5.74;88.07
71239;BME280;61342;51.442;7.370;2023-05-03T03:12:06;101302.91;;;5.71;87.90
71239;BME280;61342;51.442;7.370;2023-05-03T03:13:07;101307.38;;;5.72;87.91
71239;BME280;61342;51.442;7.370;2023-05-03T03:14:07;101305.78;;;5.71;88.39
71239;BME280;61342;51.442;7.370;2023-05-03T03:15:08;101298.03;;;5.72;88.38
71239;BME280;61342;51.442;7.370;2023-05-03T03:16:09;101300.53;;;5.70;88.18
71239;BME280;61342;51.442;7.370;2023-05-03T03:17:10;101301.03;;;5.69;88.36
71239;BME280;61342;51.442;7.370;2023-05-03T03:18:11;101297.53;;;5.65;88.47
71239;BME280;61342;51.442;7.370;2023-05-03T03:19:11;101303.53;;;5.67;88.40
71239;BME280;61342;51.442;7.370;2023-05-03T03:20:12;101307.19;;;5.67;88.25
71239;BME280;61342;51.442;7.370;2023-05-03T03:21:12;101305.59;;;5.66;88.37
71239;BME280;61342;51.442;7.370;2023-05-03T03:22:12;101292.78;;;5.62;88.25
71239;BME280;61342;51.442;7.370;2023-05-03T03:23:13;101291.47;;;5.63;88.37
71239;BME280;61342;51.442;7.370;2023-05-03T03:24:13;101298.47;;;5.62;88.47
71239;BME280;61342;51.442;7.370;2023-05-03T03:25:14;101298.47;;;5.62;88.38
71239;BME280;61342;51.442;7.370;2023-05-03T03:26:15;101304.19;;;5.62;88.63
71239;BME280;61342;51.442;7.370;2023-05-03T03:27:15;101297.84;;;5.58;88.65
71239;BME280;61342;51.442;7.370;2023-05-03T03:28:16;101301.81;;;5.60;88.58
71239;BME280;61342;51.442;7.370;2023-05-03T03:29:16;101303.53;;;5.58;88.48
71239;BME280;61342;51.442;7.370;2023-05-03T03:30:17;101302.72;;;5.57;88.56
71239;BME280;61342;51.442;7.370;2023-05-03T03:31:17;101295.91;;;5.55;88.35
71239;BME280;61342;51.442;7.370;2023-05-03T03:32:18;101294.81;;;5.52;88.53
71239;BME280;61342;51.442;7.370;2023-05-03T03:33:18;101290.66;;;5.53;88.67
71239;BME280;61342;51.442;7.370;2023-05-03T03:34:19;101289.88;;;5.53;88.79
71239;BME280;61342;51.442;7.370;2023-05-03T03:35:20;101285.91;;;5.50;88.67
71239;BME280;61342;51.442;7.370;2023-05-03T03:36:20;101287.97;;;5.50;88.78
71239;BME280;61342;51.442;7.370;2023-05-03T03:37:21;101290.84;;;5.50;89.04
71239;BME280;61342;51.442;7.370;2023-05-03T03:38:22;101293.34;;;5.48;88.76
71239;BME280;61342;51.442;7.370;2023-05-03T03:39:22;101285.28;;;5.46;88.98
71239;BME280;61342;51.442;7.370;2023-05-03T03:40:23;101292.09;;;5.49;89.15
71239;BME280;61342;51.442;7.370;2023-05-03T03:41:23;101285.75;;;5.45;88.92
71239;BME280;61342;51.442;7.370;2023-05-03T03:42:23;101279.69;;;5.43;89.07
71239;BME280;61342;51.442;7.370;2023-05-03T03:43:24;101281.28;;;5.44;89.33
71239;BME280;61342;51.442;7.370;2023-05-03T03:44:25;101287.00;;;5.44;89.14
71239;BME280;61342;51.442;7.370;2023-05-03T03:45:25;101280.50;;;5.43;88.92
71239;BME280;61342;51.442;7.370;2023-05-03T03:46:25;101277.50;;;5.38;89.41
71239;BME280;61342;51.442;7.370;2023-05-03T03:47:26;101280.50;;;5.43;89.37
71239;BME280;61342;51.442;7.370;2023-05-03T03:48:26;101276.22;;;5.39;89.39
71239;BME280;61342;51.442;7.370;2023-05-03T03:49:27;101277.81;;;5.40;89.28
71239;BME280;61342;51.442;7.370;2023-05-03T03:50:27;101275.91;;;5.37;89.36
71239;BME280;61342;51.442;7.370;2023-05-03T03:51:28;101273.34;;;5.39;89.48
71239;BME280;61342;51.442;7.370;2023-05-03T03:52:28;101281.13;;;5.38;89.52
71239;BME280;61342;51.442;7.370;2023-05-03T03:53:29;101277.16;;;5.36;89.42
71239;BME280;61342;51.442;7.370;2023-05-03T03:54:29;101277.63;;;5.34;89.75
71239;BME280;61342;51.442;7.370;2023-05-03T03:55:29;101278.41;;;5.35;89.50
71239;BME280;61342;51.442;7.370;2023-05-03T03:56:30;101279.22;;;5.35;89.84
71239;BME280;61342;51.442;7.370;2023-05-03T03:57:30;101282.53;;;5.34;89.50
71239;BME280;61342;51.442;7.370;2023-05-03T03:58:31;101283.81;;;5.33;89.97
71239;BME280;61342;51.442;7.370;2023-05-03T03:59:31;101285.06;;;5.32;89.73
71239;BME280;61342;51.442;7.370;2023-05-03T04:00:33;101279.34;;;5.32;89.83
71239;BME280;61342;51.442;7.370;2023-05-03T04:01:33;101280.31;;;5.29;89.78
71239;BME280;61342;51.442;7.370;2023-05-03T04:02:33;101281.09;;;5.29;89.96
71239;BME280;61342;51.442;7.370;2023-05-03T04:03:34;101272.22;;;5.27;89.44
71239;BME280;61342;51.442;7.370;2023-05-03T04:04:34;101277.72;;;5.22;90.13
71239;BME280;61342;51.442;7.370;2023-05-03T04:05:35;101279.97;;;5.27;90.02
71239;BME280;61342;51.442;7.370;2023-05-03T04:06:35;101281.22;;;5.26;90.14
71239;BME280;61342;51.442;7.370;2023-05-03T04:07:35;101278.06;;;5.24;90.19
71239;BME280;61342;51.442;7.370;2023-05-03T04:08:36;101281.69;;;5.24;90.20
71239;BME280;61342;51.442;7.370;2023-05-03T04:09:36;101280.91;;;5.24;90.05
71239;BME280;61342;51.442;7.370;2023-05-03T04:10:36;101270.47;;;5.21;90.34
71239;BME280;61342;51.442;7.370;2023-05-03T04:11:37;101270.94;;;5.19;90.27
71239;BME280;61342;51.442;7.370;2023-05-03T04:12:37;101275.81;;;5.19;90.35
71239;BME280;61342;51.442;7.370;2023-05-03T04:13:37;101279.00;;;5.21;90.34
71239;BME280;61342;51.442;7.370;2023-05-03T04:14:38;101273.78;;;5.19;90.36
71239;BME280;61342;51.442;7.370;2023-05-03T04:15:38;101274.56;;;5.20;90.38
71239;BME280;61342;51.442;7.370;2023-05-03T04:16:39;101271.72;;;5.20;90.28
71239;BME280;61342;51.442;7.370;2023-05-03T04:17:39;101275.81;;;5.19;90.41
71239;BME280;61342;51.442;7.370;2023-05-03T04:18:40;101276.28;;;5.17;90.51
71239;BME280;61342;51.442;7.370;2023-05-03T04:19:41;101272.66;;;5.17;90.64
71239;BME280;61342;51.442;7.370;2023-05-03T04:20:42;101278.66;;;5.19;90.67
71239;BME280;61342;51.442;7.370;2023-05-03T04:21:43;101272.66;;;5.17;90.74
71239;BME280;61342;51.442;7.370;2023-05-03T04:22:44;101272.66;;;5.17;90.77
71239;BME280;61342;51.442;7.370;2023-05-03T04:23:44;101271.06;;;5.16;90.64
71239;BME280;61342;51.442;7.370;2023-05-03T04:24:45;101264.56;;;5.15;90.75
71239;BME280;61342;51.442;7.370;2023-05-03T04:25:46;101261.53;;;5.10;90.71
71239;BME280;61342;51.442;7.370;2023-05-03T04:26:47;101255.81;;;5.10;90.83
71239;BME280;61342;51.442;7.370;2023-05-03T04:27:50;101262.16;;;5.14;90.72
71239;BME280;61342;51.442;7.370;2023-05-03T04:28:50;101267.09;;;5.13;91.04
71239;BME280;61342;51.442;7.370;2023-05-03T04:29:51;101263.47;;;5.13;91.29
71239;BME280;61342;51.442;7.370;2023-05-03T04:30:52;101264.72;;;5.12;91.01
71239;BME280;61342;51.442;7.370;2023-05-03T04:31:52;101249.47;;;5.06;91.08
71239;BME280;61342;51.442;7.370;2023-05-03T04:32:53;101256.91;;;5.04;90.71
71239;BME280;61342;51.442;7.370;2023-05-03T04:33:54;101251.53;;;5.06;91.25
71239;BME280;61342;51.442;7.370;2023-05-03T04:37:23;101257.84;;;5.01;91.18
71239;BME280;61342;51.442;7.370;2023-05-03T04:38:23;101260.84;;;4.97;91.04
71239;BME280;61342;51.442;7.370;2023-05-03T04:39:24;101256.53;;;4.93;91.11
71239;BME280;61342;51.442;7.370;2023-05-03T04:40:24;101266.69;;;4.94;91.24
71239;BME280;61342;51.442;7.370;2023-05-03T04:41:25;101261.13;;;4.90;91.43
71239;BME280;61342;51.442;7.370;2023-05-03T04:42:25;101272.38;;;4.94;91.53
71239;BME280;61342;51.442;7.370;2023-05-03T04:43:26;101265.44;;;4.95;91.49
71239;BME280;61342;51.442;7.370;2023-05-03T04:44:26;101257.47;;;4.90;91.67
71239;BME280;61342;51.442;7.370;2023-05-03T04:45:26;101258.72;;;4.89;91.92
71239;BME280;61342;51.442;7.370;2023-05-03T04:46:27;101269.53;;;4.94;92.07
71239;BME280;61342;51.442;7.370;2023-05-03T04:47:27;101269.41;;;4.97;91.80
71239;BME280;61342;51.442;7.370;2023-05-03T04:48:28;101262.88;;;4.97;91.83
71239;BME280;61342;51.442;7.370;2023-05-03T04:49:29;101268.13;;;4.98;91.89
71239;BME280;61342;51.442;7.370;2023-05-03T04:50:30;101271.31;;;5.00;91.92
71239;BME280;61342;51.442;7.370;2023-05-03T04:51:30;101266.38;;;5.01;92.06
71239;BME280;61342;51.442;7.370;2023-05-03T04:52:31;101275.75;;;5.01;91.81
71239;BME280;61342;51.442;7.370;2023-05-03T04:53:31;101271.13;;;5.04;91.85
71239;BME280;61342;51.442;7.370;2023-05-03T04:54:32;101263.06;;;5.02;91.89
71239;BME280;61342;51.442;7.370;2023-05-03T04:55:32;101278.91;;;5.03;92.09
71239;BME280;61342;51.442;7.370;2023-05-03T04:56:33;101275.59;;;5.05;91.93
71239;BME280;61342;51.442;7.370;2023-05-03T04:57:34;101274.81;;;5.04;92.20
71239;BME280;61342;51.442;7.370;2023-05-03T04:58:35;101272.56;;;4.99;91.93
71239;BME280;61342;51.442;7.370;2023-05-03T04:59:36;101269.72;;;4.99;92.26
71239;BME280;61342;51.442;7.370;2023-05-03T05:00:36;101284.59;;;5.03;92.06
71239;BME280;61342;51.442;7.370;2023-05-03T05:01:36;101287.31;;;5.07;92.01
71239;BME280;61342;51.442;7.370;2023-05-03T05:02:37;101289.06;;;5.04;92.39
71239;BME280;61342;51.442;7.370;2023-05-03T05:03:37;101298.25;;;5.08;92.25
71239;BME280;61342;51.442;7.370;2023-05-03T05:04:37;101291.78;;;5.08;92.00
71239;BME280;61342;51.442;7.370;2023-05-03T05:05:38;101294.63;;;5.08;92.26
71239;BME280;61342;51.442;7.370;2023-05-03T05:06:38;101295.06;;;5.06;92.27
71239;BME280;61342;51.442;7.370;2023-05-03T05:07:38;101289.06;;;5.04;92.44
71239;BME280;61342;51.442;7.370;2023-05-03T05:08:39;101299.63;;;5.04;91.87
71239;BME280;61342;51.442;7.370;2023-05-03T05:09:39;101302.34;;;5.07;92.07
71239;BME280;61342;51.442;7.370;2023-05-03T05:10:40;101302.69;;;5.09;91.99
71239;BME280;61342;51.442;7.370;2023-05-03T05:11:40;101294.28;;;5.06;92.09
71239;BME280;61342;51.442;7.370;2023-05-03T05:12:41;101303.16;;;5.08;92.25
71239;BME280;61342;51.442;7.370;2023-05-03T05:13:42;101308.56;;;5.14;92.20
71239;BME280;61342;51.442;7.370;2023-05-03T05:14:42;101305.25;;;5.16;92.18
71239;BME280;61342;51.442;7.370;2023-05-03T05:15:42;101300.50;;;5.13;91.94
71239;BME280;61342;51.442;7.370;2023-05-03T05:16:43;101301.94;;;5.17;92.15
71239;BME280;61342;51.442;7.370;2023-05-03T05:20:04;101307.31;;;5.15;91.94
71239;BME280;61342;51.442;7.370;2023-05-03T05:21:06;101297.31;;;5.11;92.03
71239;BME280;61342;51.442;7.370;2023-05-03T05:22:06;101307.44;;;5.12;91.98
71239;BME280;61342;51.442;7.370;2023-05-03T05:23:07;101304.00;;;5.17;92.25
71239;BME280;61342;51.442;7.370;2023-05-03T05:24:07;101309.22;;;5.18;92.15
71239;BME280;61342;51.442;7.370;2023-05-03T05:25:07;101308.41;;;5.18;92.17
71239;BME280;61342;51.442;7.370;2023-05-03T05:26:08;101304.31;;;5.19;92.33
71239;BME280;61342;51.442;7.370;2023-05-03T05:27:08;101315.41;;;5.26;92.28
71239;BME280;61342;51.442;7.370;2023-05-03T05:28:09;101312.91;;;5.28;92.33
71239;BME280;61342;51.442;7.370;2023-05-03T05:29:10;101311.97;;;5.31;92.25
71239;BME280;61342;51.442;7.370;2023-05-03T05:30:10;101313.56;;;5.32;92.16
71239;BME280;61342;51.442;7.370;2023-05-03T05:31:11;101317.06;;;5.36;92.00
71239;BME280;61342;51.442;7.370;2023-05-03T05:32:12;101311.22;;;5.39;92.06
71239;BME280;61342;51.442;7.370;2023-05-03T05:33:13;101308.03;;;5.37;92.21
71239;BME280;61342;51.442;7.370;2023-05-03T05:34:13;101323.59;;;5.45;91.94
71239;BME280;61342;51.442;7.370;2023-05-03T05:35:13;101308.22;;;5.43;91.95
71239;BME280;61342;51.442;7.370;2023-05-03T05:36:16;101318.22;;;5.47;92.02
71239;BME280;61342;51.442;7.370;2023-05-03T05:37:17;101325.34;;;5.52;92.00